createdAt,value
2023-04-08T00:01:23.462Z,2.78
2023-04-08T00:03:50.787Z,2.70
2023-04-08T00:06:18.060Z,2.30
2023-04-08T00:08:47.586Z,2.53
2023-04-08T00:11:14.868Z,2.28
2023-04-08T00:13:42.070Z,2.72
2023-04-08T00:16:09.456Z,2.88
2023-04-08T00:18:38.180Z,2.63
2023-04-08T00:21:05.362Z,2.38
2023-04-08T00:23:32.682Z,2.70
2023-04-08T00:25:59.739Z,2.50
2023-04-08T00:28:27.008Z,2.65
2023-04-08T00:30:54.790Z,2.38
2023-04-08T00:33:22.068Z,2.42
2023-04-08T00:35:52.249Z,2.50
2023-04-08T00:38:19.552Z,2.50
2023-04-08T00:40:46.973Z,2.67
2023-04-08T00:43:14.202Z,2.40
2023-04-08T00:45:41.405Z,2.95
2023-04-08T00:48:08.626Z,2.85
2023-04-08T00:50:35.892Z,2.78
2023-04-08T00:53:03.074Z,2.60
2023-04-08T00:55:32.471Z,2.42
2023-04-08T00:57:59.860Z,2.30
2023-04-08T01:00:30.309Z,2.55
2023-04-08T01:03:14.221Z,2.40
2023-04-08T01:06:11.497Z,2.47
2023-04-08T01:08:41.921Z,2.70
2023-04-08T01:11:12.264Z,2.45
2023-04-08T01:13:41.280Z,2.70
2023-04-08T01:16:16.019Z,2.40
2023-04-08T01:18:45.022Z,2.58
2023-04-08T01:21:14.760Z,2.50
2023-04-08T01:23:53.205Z,2.63
2023-04-08T01:26:27.215Z,2.75
2023-04-08T01:29:00.872Z,2.30
2023-04-08T01:31:33.728Z,2.53
2023-04-08T01:34:04.757Z,2.40
2023-04-08T01:36:32.765Z,2.17
2023-04-08T01:39:05.788Z,2.15
2023-04-08T01:44:03.853Z,2.35
2023-04-08T01:46:32.774Z,2.40
2023-04-08T01:49:00.902Z,2.20
2023-04-08T01:51:29.731Z,2.60
2023-04-08T01:53:59.741Z,2.53
2023-04-08T01:56:30.648Z,2.30
2023-04-08T01:59:00.692Z,2.13
2023-04-08T02:01:30.335Z,2.40
2023-04-08T02:03:59.531Z,2.50
2023-04-08T02:06:29.171Z,2.40
2023-04-08T02:08:56.879Z,2.15
2023-04-08T02:11:25.884Z,2.10
2023-04-08T02:13:53.544Z,2.50
2023-04-08T02:16:33.878Z,2.40
2023-04-08T02:19:09.810Z,2.30
2023-04-08T02:21:55.358Z,2.45
2023-04-08T02:24:29.869Z,2.30
2023-04-08T02:26:59.146Z,2.47
2023-04-08T02:29:29.862Z,2.78
2023-04-08T02:31:58.138Z,2.35
2023-04-08T02:34:27.872Z,2.60
2023-04-08T02:36:55.203Z,2.00
2023-04-08T02:39:30.444Z,2.50
2023-04-08T02:41:57.680Z,2.20
2023-04-08T02:44:25.364Z,2.50
2023-04-08T02:46:52.539Z,2.22
2023-04-08T02:49:19.721Z,2.40
2023-04-08T02:51:46.852Z,2.45
2023-04-08T02:54:13.920Z,2.33
2023-04-08T02:56:45.705Z,2.13
2023-04-08T02:59:15.012Z,2.42
2023-04-08T03:01:43.140Z,2.17
2023-04-08T03:04:12.582Z,2.22
2023-04-08T03:06:39.751Z,2.30
2023-04-08T03:09:07.198Z,2.35
2023-04-08T03:11:39.881Z,2.70
2023-04-08T03:14:06.965Z,2.33
2023-04-08T03:16:34.182Z,2.25
2023-04-08T03:19:01.340Z,2.10
2023-04-08T03:21:28.603Z,2.45
2023-04-08T03:23:58.116Z,2.40
2023-04-08T03:26:27.155Z,2.28
2023-04-08T03:28:54.254Z,2.20
2023-04-08T03:31:23.818Z,2.58
2023-04-08T03:33:51.096Z,2.38
2023-04-08T03:36:18.239Z,2.15
2023-04-08T03:38:45.394Z,2.38
2023-04-08T03:41:12.548Z,2.25
2023-04-08T03:43:42.197Z,2.17
2023-04-08T03:46:09.798Z,2.30
2023-04-08T03:48:39.432Z,2.55
2023-04-08T03:51:06.592Z,2.72
2023-04-08T03:53:33.695Z,2.40
2023-04-08T03:56:02.683Z,2.40
2023-04-08T03:58:30.091Z,2.65
2023-04-08T04:00:57.501Z,2.38
2023-04-08T04:03:25.032Z,2.22
2023-04-08T04:05:54.575Z,2.35
2023-04-08T04:08:24.031Z,2.50
2023-04-08T04:10:51.622Z,2.80
2023-04-08T04:13:19.744Z,2.63
2023-04-08T04:15:46.951Z,2.25
2023-04-08T04:18:14.136Z,2.47
2023-04-08T04:20:44.492Z,2.50
2023-04-08T04:23:11.757Z,2.35
2023-04-08T04:25:41.679Z,2.35
2023-04-08T04:28:09.964Z,2.63
2023-04-08T04:30:39.982Z,2.30
2023-04-08T04:33:07.656Z,2.92
2023-04-08T04:35:34.977Z,2.30
2023-04-08T04:38:02.200Z,2.20
2023-04-08T04:40:29.559Z,2.45
2023-04-08T04:42:56.673Z,2.30
2023-04-08T04:45:28.673Z,2.47
2023-04-08T04:47:56.085Z,2.65
2023-04-08T04:50:23.425Z,2.80
2023-04-08T04:52:52.809Z,2.30
2023-04-08T04:55:20.028Z,2.13
2023-04-08T04:57:47.115Z,2.28
2023-04-08T05:00:17.068Z,2.25
2023-04-08T05:02:44.464Z,2.85
2023-04-08T05:05:11.819Z,2.65
2023-04-08T05:07:39.186Z,2.50
2023-04-08T05:10:06.827Z,2.45
2023-04-08T05:12:34.056Z,2.97
2023-04-08T05:15:02.297Z,4.00
2023-04-08T05:17:29.616Z,5.13
2023-04-08T05:19:59.121Z,5.45
2023-04-08T05:22:26.524Z,5.43
2023-04-08T05:24:53.683Z,5.35
2023-04-08T05:27:21.751Z,5.18
2023-04-08T05:29:51.599Z,5.47
2023-04-08T05:32:18.788Z,5.22
2023-04-08T05:34:45.944Z,4.88
2023-04-08T05:37:13.170Z,4.28
2023-04-08T05:39:40.410Z,4.10
2023-04-08T05:42:07.636Z,4.38
2023-04-08T05:44:37.203Z,4.07
2023-04-08T05:47:04.400Z,3.50
2023-04-08T05:49:31.716Z,4.15
2023-04-08T05:51:58.877Z,3.88
2023-04-08T05:54:26.383Z,3.25
2023-04-08T05:56:53.515Z,3.13
2023-04-08T05:59:20.834Z,3.30
2023-04-08T06:01:47.947Z,3.13
2023-04-08T06:04:17.858Z,2.88
2023-04-08T06:06:47.461Z,3.03
2023-04-08T06:09:17.317Z,3.70
2023-04-08T06:11:44.587Z,2.90
2023-04-08T06:14:11.836Z,3.00
2023-04-08T06:16:41.580Z,2.40
2023-04-08T06:19:08.887Z,2.97
2023-04-08T06:21:36.381Z,3.00
2023-04-08T06:24:03.776Z,2.45
2023-04-08T06:26:31.110Z,3.60
2023-04-08T06:28:58.270Z,3.22
2023-04-08T06:31:25.513Z,3.63
2023-04-08T06:33:52.719Z,3.38
2023-04-08T06:36:19.909Z,3.22
2023-04-08T06:38:48.566Z,3.30
2023-04-08T06:41:16.013Z,2.78
2023-04-08T06:43:47.051Z,3.10
2023-04-08T06:46:14.732Z,2.83
2023-04-08T06:48:45.753Z,2.60
2023-04-08T06:51:16.047Z,2.80
2023-04-08T06:53:46.480Z,2.95
2023-04-08T06:56:20.147Z,2.50
2023-04-08T06:58:47.664Z,2.60
2023-04-08T07:01:51.654Z,2.20
2023-04-08T07:04:19.934Z,2.10
2023-04-08T07:06:50.433Z,2.40
2023-04-08T07:09:26.130Z,2.30
2023-04-08T07:11:56.286Z,2.28
2023-04-08T07:14:24.689Z,2.30
2023-04-08T07:16:56.942Z,2.30
2023-04-08T07:19:28.348Z,2.57
2023-04-08T07:21:57.468Z,2.38
2023-04-08T07:24:25.860Z,2.30
2023-04-08T07:26:55.837Z,2.10
2023-04-08T07:29:28.436Z,2.47
2023-04-08T07:31:56.974Z,2.10
2023-04-08T07:34:26.926Z,2.38
2023-04-08T07:36:57.739Z,1.90
2023-04-08T07:39:25.112Z,2.15
2023-04-08T07:41:55.468Z,2.10
2023-04-08T07:44:26.582Z,2.10
2023-04-08T07:46:55.228Z,1.92
2023-04-08T07:49:51.535Z,2.05
2023-04-08T07:52:20.886Z,3.20
2023-04-08T07:54:48.510Z,2.10
2023-04-08T07:57:16.287Z,2.70
2023-04-08T08:00:24.755Z,2.78
2023-04-08T08:03:09.328Z,2.45
2023-04-08T08:09:43.768Z,2.47
2023-04-08T08:12:18.413Z,2.50
2023-04-08T08:14:45.925Z,2.45
2023-04-08T08:17:13.318Z,2.10
2023-04-08T08:20:30.986Z,2.42
2023-04-08T08:22:58.163Z,2.10
2023-04-08T08:25:26.265Z,2.30
2023-04-08T08:27:53.708Z,2.17
2023-04-08T08:30:22.264Z,2.17
2023-04-08T08:32:52.263Z,1.85
2023-04-08T08:35:23.211Z,2.20
2023-04-08T08:38:19.994Z,2.22
2023-04-08T08:40:55.037Z,2.28
2023-04-08T08:43:23.484Z,2.15
2023-04-08T08:45:51.294Z,2.28
2023-04-08T08:48:18.598Z,2.20
2023-04-08T08:50:46.117Z,2.30
2023-04-08T08:53:13.801Z,1.90
2023-04-08T08:56:00.164Z,2.15
2023-04-08T08:58:28.906Z,2.20
2023-04-08T09:00:58.496Z,2.72
2023-04-08T09:03:28.507Z,2.00
2023-04-08T09:06:02.150Z,2.28
2023-04-08T09:08:34.453Z,2.10
2023-04-08T09:11:18.710Z,2.67
2023-04-08T09:13:46.819Z,2.30
2023-04-08T09:16:19.793Z,1.88
2023-04-08T09:18:50.096Z,1.95
2023-04-08T09:21:18.363Z,2.00
2023-04-08T09:23:51.347Z,1.73
2023-04-08T09:26:23.902Z,2.08
2023-04-08T09:29:14.282Z,1.83
2023-04-08T09:31:54.138Z,1.90
2023-04-08T09:36:54.871Z,1.73
2023-04-08T09:39:22.445Z,1.88
2023-04-08T09:41:51.719Z,1.63
2023-04-08T09:44:21.768Z,1.90
2023-04-08T09:47:26.670Z,1.80
2023-04-08T09:50:05.373Z,1.95
2023-04-08T09:52:46.338Z,2.00
2023-04-08T09:55:14.735Z,2.00
2023-04-08T09:57:55.689Z,2.17
2023-04-08T10:00:28.744Z,1.73
2023-04-08T10:05:30.502Z,2.00
2023-04-08T10:08:00.471Z,1.52
2023-04-08T10:10:28.032Z,1.90
2023-04-08T10:12:55.900Z,1.60
2023-04-08T10:15:40.586Z,1.70
2023-04-08T10:18:10.018Z,1.70
2023-04-08T10:20:37.468Z,2.10
2023-04-08T10:23:14.000Z,1.98
2023-04-08T10:25:42.558Z,2.13
2023-04-08T10:28:17.896Z,2.22
2023-04-08T10:30:48.332Z,2.15
2023-04-08T10:33:31.250Z,1.90
2023-04-08T10:36:11.724Z,1.98
2023-04-08T10:38:43.101Z,2.05
2023-04-08T10:41:22.078Z,2.20
2023-04-08T10:43:57.206Z,2.05
2023-04-08T10:46:37.795Z,2.22
2023-04-08T10:49:05.793Z,2.40
2023-04-08T10:51:37.237Z,2.17
2023-04-08T10:54:09.023Z,2.78
2023-04-08T10:56:55.178Z,2.90
2023-04-08T10:59:33.189Z,3.38
2023-04-08T11:02:02.628Z,3.38
2023-04-08T11:04:30.381Z,2.97
2023-04-08T11:06:58.681Z,2.75
2023-04-08T11:09:26.622Z,3.10
2023-04-08T11:12:17.250Z,2.88
2023-04-08T11:15:29.296Z,2.78
2023-04-08T11:17:59.221Z,2.92
2023-04-08T11:20:26.664Z,2.42
2023-04-08T11:22:53.771Z,2.42
2023-04-08T11:25:21.293Z,2.58
2023-04-08T11:27:49.810Z,2.60
2023-04-08T11:30:19.380Z,2.88
2023-04-08T11:32:49.255Z,2.40
2023-04-08T11:35:29.076Z,2.53
2023-04-08T11:38:01.052Z,2.60
2023-04-08T11:40:54.468Z,2.50
2023-04-08T11:43:50.051Z,2.40
2023-04-08T11:46:41.056Z,2.35
2023-04-08T11:49:16.837Z,2.60
2023-04-08T11:52:02.422Z,2.60
2023-04-08T11:54:33.672Z,2.53
2023-04-08T11:57:21.127Z,2.47
2023-04-08T11:59:56.429Z,2.42
2023-04-08T12:02:26.553Z,2.72
2023-04-08T12:04:58.711Z,2.60
2023-04-08T12:07:27.269Z,2.72
2023-04-08T12:10:13.705Z,2.50
2023-04-08T12:12:43.446Z,2.30
2023-04-08T12:15:11.437Z,2.40
2023-04-08T12:17:39.067Z,2.60
2023-04-08T12:20:09.925Z,2.08
2023-04-08T12:22:37.216Z,2.10
2023-04-08T12:25:04.740Z,2.50
2023-04-08T12:27:35.575Z,2.30
2023-04-08T12:30:03.653Z,2.30
2023-04-08T12:32:30.982Z,2.65
2023-04-08T12:34:58.248Z,2.45
2023-04-08T12:37:25.477Z,2.40
2023-04-08T12:39:53.147Z,2.50
2023-04-08T12:42:20.331Z,2.70
2023-04-08T12:44:47.514Z,2.50
2023-04-08T12:47:14.686Z,2.80
2023-04-08T12:49:49.320Z,2.65
2023-04-08T12:52:17.763Z,3.00
2023-04-08T12:54:45.532Z,2.72
2023-04-08T12:57:12.943Z,3.08
2023-04-08T12:59:44.182Z,2.50
2023-04-08T13:05:51.192Z,3.13
2023-04-08T13:08:20.653Z,2.80
2023-04-08T13:10:54.886Z,2.50
2023-04-08T13:13:26.617Z,2.70
2023-04-08T13:15:55.264Z,2.83
2023-04-08T13:18:35.490Z,3.05
2023-04-08T13:21:09.216Z,3.28
2023-04-08T13:23:39.748Z,3.33
2023-04-08T13:26:07.208Z,3.67
2023-04-08T13:29:00.864Z,3.42
2023-04-08T13:31:28.561Z,3.33
2023-04-08T13:33:58.144Z,3.35
2023-04-08T13:36:27.012Z,3.35
2023-04-08T13:38:54.863Z,4.43
2023-04-08T13:41:22.254Z,2.95
2023-04-08T13:43:50.637Z,2.90
2023-04-08T13:52:43.367Z,3.13
2023-04-08T13:55:10.881Z,2.85
2023-04-08T13:57:47.369Z,2.42
2023-04-08T14:00:16.932Z,2.90
2023-04-08T14:02:50.245Z,2.85
2023-04-08T14:05:20.708Z,2.95
2023-04-08T14:07:53.064Z,2.63
2023-04-08T14:10:20.237Z,2.47
2023-04-08T14:12:47.653Z,2.50
2023-04-08T14:15:17.999Z,2.53
2023-04-08T14:18:12.052Z,2.75
2023-04-08T14:21:15.140Z,2.45
2023-04-08T14:23:42.946Z,2.65
2023-04-08T14:26:14.935Z,2.40
2023-04-08T14:28:42.335Z,2.40
2023-04-08T14:31:09.674Z,2.42
2023-04-08T14:33:39.737Z,2.50
2023-04-08T14:36:07.298Z,2.53
2023-04-08T14:38:37.196Z,2.28
2023-04-08T14:41:05.523Z,2.10
2023-04-08T14:43:35.547Z,2.28
2023-04-08T14:46:02.879Z,2.28
2023-04-08T14:48:30.940Z,2.15
2023-04-08T14:50:58.153Z,2.47
2023-04-08T14:53:27.988Z,2.80
2023-04-08T14:55:55.200Z,2.60
2023-04-08T14:58:22.479Z,2.88
2023-04-08T15:00:51.890Z,2.75
2023-04-08T15:03:21.871Z,2.92
2023-04-08T15:05:58.861Z,2.90
2023-04-08T15:08:26.185Z,2.50
2023-04-08T15:10:53.494Z,2.67
2023-04-08T15:13:20.779Z,2.50
2023-04-08T15:15:47.939Z,2.33
2023-04-08T15:18:15.441Z,2.95
2023-04-08T15:20:47.075Z,2.33
2023-04-08T15:23:14.935Z,2.90
2023-04-08T15:26:17.219Z,2.55
2023-04-08T15:28:47.125Z,2.50
2023-04-08T15:31:36.586Z,2.40
2023-04-08T15:34:14.371Z,2.60
2023-04-08T15:36:46.809Z,2.75
2023-04-08T15:39:28.183Z,2.60
2023-04-08T15:42:36.877Z,2.38
2023-04-08T15:53:12.665Z,2.60
2023-04-08T15:55:43.872Z,2.53
2023-04-08T15:58:22.625Z,2.17
2023-04-08T16:04:24.411Z,2.60
2023-04-08T16:07:00.351Z,2.53
2023-04-08T16:09:28.262Z,3.22
2023-04-08T16:11:57.108Z,3.05
2023-04-08T16:14:29.903Z,3.00
2023-04-08T16:17:08.918Z,3.38
2023-04-08T16:19:36.447Z,3.20
2023-04-08T16:22:03.918Z,2.97
2023-04-08T16:24:32.732Z,3.13
2023-04-08T16:27:00.706Z,3.80
2023-04-08T16:29:27.976Z,4.05
2023-04-08T16:32:01.744Z,3.65
2023-04-08T16:34:32.996Z,3.35
2023-04-08T16:37:12.729Z,3.20
2023-04-08T16:39:46.472Z,3.50
2023-04-08T16:42:15.060Z,3.40
2023-04-08T16:44:42.518Z,3.63
2023-04-08T16:47:09.722Z,4.03
2023-04-08T16:49:36.851Z,3.40
2023-04-08T16:52:03.987Z,3.67
2023-04-08T16:54:33.544Z,3.40
2023-04-08T16:57:03.004Z,3.75
2023-04-08T16:59:30.230Z,3.35
2023-04-08T17:01:57.587Z,3.30
2023-04-08T17:04:24.913Z,3.33
2023-04-08T17:06:52.390Z,3.28
2023-04-08T17:09:19.586Z,3.75
2023-04-08T17:11:46.838Z,3.95
2023-04-08T17:14:14.073Z,3.25
2023-04-08T17:16:41.511Z,3.63
2023-04-08T17:19:08.818Z,3.70
2023-04-08T17:21:50.210Z,4.00
2023-04-08T17:24:17.770Z,3.13
2023-04-08T17:26:45.079Z,3.33
2023-04-08T17:29:12.277Z,3.20
2023-04-08T17:31:42.069Z,2.90
2023-04-08T17:34:09.399Z,3.55
2023-04-08T17:36:36.668Z,3.35
2023-04-08T17:39:03.856Z,3.30
2023-04-08T17:41:39.749Z,3.10
2023-04-08T17:44:07.975Z,3.28
2023-04-08T17:46:35.278Z,3.00
2023-04-08T17:49:02.547Z,3.00
2023-04-08T17:51:31.011Z,3.20
2023-04-08T17:53:58.382Z,2.80
2023-04-08T17:56:27.225Z,3.10
2023-04-08T17:58:54.671Z,3.05
2023-04-08T18:01:24.943Z,2.95
2023-04-08T18:03:52.585Z,3.10
2023-04-08T18:06:23.257Z,2.45
2023-04-08T18:08:53.325Z,2.80
2023-04-08T18:11:26.481Z,2.70
2023-04-08T18:13:53.820Z,2.90
2023-04-08T18:16:22.157Z,2.42
2023-04-08T18:18:49.848Z,3.17
2023-04-08T18:21:22.148Z,3.70
2023-04-08T18:23:53.006Z,3.70
2023-04-08T18:26:21.327Z,3.58
2023-04-08T18:28:48.729Z,3.45
2023-04-08T18:31:16.608Z,2.83
2023-04-08T18:33:43.984Z,2.80
2023-04-08T18:36:12.761Z,3.13
2023-04-08T18:38:42.411Z,2.85
2023-04-08T18:41:10.521Z,2.83
2023-04-08T18:43:37.911Z,2.78
2023-04-08T18:46:11.933Z,2.78
2023-04-08T18:48:49.266Z,2.60
2023-04-08T18:51:22.585Z,3.30
2023-04-08T18:53:50.245Z,2.70
2023-04-08T18:56:18.872Z,2.90
2023-04-08T18:58:47.100Z,2.60
2023-04-08T19:01:14.808Z,3.00
2023-04-08T19:03:43.485Z,2.50
2023-04-08T19:06:12.970Z,2.42
2023-04-08T19:08:40.318Z,2.65
2023-04-08T19:11:09.576Z,2.50
2023-04-08T19:13:37.016Z,2.88
2023-04-08T19:16:04.899Z,2.33
2023-04-08T19:18:32.422Z,2.70
2023-04-08T19:21:01.111Z,2.20
2023-04-08T19:23:30.684Z,2.20
2023-04-08T19:25:58.090Z,2.35
2023-04-08T19:28:25.451Z,2.47
2023-04-08T19:30:52.664Z,2.47
2023-04-08T19:33:20.964Z,2.50
2023-04-08T19:35:48.723Z,2.70
2023-04-08T19:38:15.969Z,2.67
2023-04-08T19:40:43.136Z,2.40
2023-04-08T19:43:10.229Z,2.42
2023-04-08T19:45:37.417Z,2.15
2023-04-08T19:48:07.675Z,2.35
2023-04-08T19:50:38.519Z,2.40
2023-04-08T19:53:06.101Z,2.20
2023-04-08T19:55:35.170Z,2.33
2023-04-08T19:58:02.398Z,2.40
2023-04-08T20:00:32.565Z,2.30
2023-04-08T20:03:00.153Z,1.98
2023-04-08T20:05:27.548Z,2.75
2023-04-08T20:07:54.685Z,2.03
2023-04-08T20:10:22.056Z,1.92
2023-04-08T20:12:49.320Z,2.17
2023-04-08T20:15:24.192Z,2.22
2023-04-08T20:17:52.967Z,2.30
2023-04-08T20:20:21.040Z,2.03
2023-04-08T20:22:48.254Z,2.38
2023-04-08T20:25:16.248Z,2.30
2023-04-08T20:27:43.403Z,2.10
2023-04-08T20:30:13.425Z,2.22
2023-04-08T20:32:40.752Z,2.28
2023-04-08T20:35:10.981Z,2.20
2023-04-08T20:37:38.245Z,2.22
2023-04-08T20:40:06.192Z,2.10
2023-04-08T20:42:33.412Z,2.50
2023-04-08T20:45:00.855Z,2.08
2023-04-08T20:47:28.599Z,2.42
2023-04-08T20:49:55.953Z,2.05
2023-04-08T20:52:25.425Z,2.42
2023-04-08T20:54:52.644Z,1.90
2023-04-08T20:57:19.830Z,2.17
2023-04-08T20:59:46.998Z,1.88
2023-04-08T21:02:14.277Z,2.20
2023-04-08T21:04:41.800Z,2.10
2023-04-08T21:07:08.921Z,2.25
2023-04-08T21:09:36.127Z,2.13
2023-04-08T21:12:05.524Z,2.47
2023-04-08T21:14:34.600Z,2.10
2023-04-08T21:17:01.812Z,1.98
2023-04-08T21:19:31.378Z,2.20
2023-04-08T21:21:58.549Z,2.20
2023-04-08T21:24:27.053Z,2.10
2023-04-08T21:26:54.272Z,1.90
2023-04-08T21:29:21.459Z,2.00
2023-04-08T21:31:50.908Z,1.80
2023-04-08T21:34:18.156Z,2.10
2023-04-08T21:36:45.331Z,2.05
2023-04-08T21:39:12.437Z,2.00
2023-04-08T21:41:39.684Z,2.10
2023-04-08T21:44:10.242Z,2.20
2023-04-08T21:46:37.617Z,2.30
2023-04-08T21:49:04.742Z,1.70
2023-04-08T21:51:31.957Z,2.20
2023-04-08T21:53:59.102Z,2.00
2023-04-08T21:56:26.348Z,1.85
2023-04-08T21:58:53.632Z,2.05
2023-04-08T22:01:20.924Z,2.20
2023-04-08T22:03:48.479Z,2.00
2023-04-08T22:06:29.098Z,2.20
2023-04-08T22:11:26.472Z,2.08
2023-04-08T22:13:55.893Z,1.83
2023-04-08T22:16:23.133Z,2.05
2023-04-08T22:18:51.054Z,2.30
2023-04-08T22:21:18.531Z,1.83
2023-04-08T22:23:46.081Z,1.92
2023-04-08T22:26:15.184Z,2.30
2023-04-08T22:28:43.037Z,2.42
2023-04-08T22:31:11.951Z,1.70
2023-04-08T22:33:42.773Z,1.90
2023-04-08T22:36:09.975Z,1.65
2023-04-08T22:38:37.201Z,1.98
2023-04-08T22:41:06.780Z,2.00
2023-04-08T22:43:33.939Z,1.98
2023-04-08T22:46:03.624Z,2.08
2023-04-08T22:48:30.833Z,1.80
2023-04-08T22:50:58.006Z,2.03
2023-04-08T22:53:25.272Z,2.13
2023-04-08T22:55:52.415Z,1.65
2023-04-08T22:58:19.572Z,1.70
2023-04-08T23:00:46.774Z,2.15
2023-04-08T23:03:14.075Z,1.85
2023-04-08T23:05:41.410Z,1.80
2023-04-08T23:08:11.160Z,1.85
2023-04-08T23:10:40.851Z,1.90
2023-04-08T23:13:10.548Z,2.00
2023-04-08T23:15:37.793Z,1.85
2023-04-08T23:18:07.954Z,2.13
2023-04-08T23:20:35.998Z,1.80
2023-04-08T23:23:03.596Z,2.03
2023-04-08T23:25:30.783Z,1.95
2023-04-08T23:27:58.168Z,2.00
2023-04-08T23:30:25.359Z,1.77
2023-04-08T23:32:55.195Z,2.22
2023-04-08T23:35:22.393Z,2.10
2023-04-08T23:37:49.743Z,1.83
2023-04-08T23:40:17.036Z,2.10
2023-04-08T23:42:46.531Z,2.25
2023-04-08T23:45:13.974Z,1.70
2023-04-08T23:47:41.304Z,2.00
2023-04-08T23:50:09.018Z,2.00
2023-04-08T23:52:38.656Z,1.77
2023-04-08T23:55:06.305Z,1.80
2023-04-08T23:57:33.487Z,1.70
